Time;durP1;ratioP1;P1;durP2;ratioP2;P2;SDS_P1;SDS_P2;PMS_P1;PMS_P2;Temp;Humidity;BMP_temperature;BMP_pressure;BME280_temperature;BME280_humidity;BME280_pressure;Samples;Min_cycle;Max_cycle;Signal;HPM_P1;HPM_P2
2023/11/24 00:00:41;;;;;;;19.58;2.15;;;;;;;-146.25;100.00;52648.00;2072233;28;35499;-75
2023/11/24 00:01:46;;;;;;;23.45;3.08;;;;;;;-146.25;100.00;52656.13;2072616;28;35097;-75
2023/11/24 00:02:48;;;;;;;19.33;1.73;;;;;;;-146.25;100.00;52607.47;2072320;28;25350;-75
2023/11/24 00:03:52;;;;;;;21.90;2.38;;;;;;;-146.25;100.00;52609.50;2073248;28;20053;-76
2023/11/24 00:04:54;;;;;;;25.58;2.78;;;;;;;-146.25;100.00;52607.47;2072077;28;30260;-73
2023/11/24 00:05:56;;;;;;;22.05;2.28;;;;;;;-146.25;100.00;52619.63;2072572;28;34331;-73
2023/11/24 00:06:58;;;;;;;23.67;2.70;;;;;;;-146.25;100.00;52611.50;2072169;28;35561;-73
2023/11/24 00:08:04;;;;;;;24.00;2.97;;;;;;;-146.25;100.00;52615.56;2072128;28;20038;-76
2023/11/24 00:09:06;;;;;;;20.50;2.30;;;;;;;-146.25;100.00;52619.63;2072370;28;20078;-72
2023/11/24 00:10:08;;;;;;;28.27;4.13;;;;;;;-146.25;100.00;52621.66;2072110;28;36164;-73
2023/11/24 00:11:10;;;;;;;22.15;2.80;;;;;;;-146.25;100.00;52627.75;2072620;28;31437;-71
2023/11/24 00:12:13;;;;;;;19.13;1.85;;;;;;;-146.25;100.00;52589.22;2073154;28;20042;-75
2023/11/24 00:13:16;;;;;;;31.17;3.72;;;;;;;-146.25;100.00;52611.50;2072618;28;28608;-73
2023/11/24 00:14:18;;;;;;;20.23;2.40;;;;;;;-146.25;100.00;52631.78;2072707;28;25518;-73
2023/11/24 00:15:22;;;;;;;20.30;2.10;;;;;;;-146.25;100.00;52601.38;2071783;28;34429;-72
2023/11/24 00:16:25;;;;;;;25.33;2.58;;;;;;;-146.25;100.00;52631.78;2072518;28;32723;-75
2023/11/24 00:17:27;;;;;;;17.67;2.15;;;;;;;-146.25;100.00;52666.25;2072633;28;23806;-73
2023/11/24 00:18:33;;;;;;;22.20;2.03;;;;;;;-146.25;100.00;52601.38;2080743;28;20068;-73
2023/11/24 00:19:34;;;;;;;22.63;2.25;;;;;;;-146.25;100.00;52643.97;2079630;28;37490;-73
2023/11/24 00:20:37;;;;;;;16.70;1.70;;;;;;;-146.25;100.00;52613.53;2072606;28;31778;-73
2023/11/24 00:21:39;;;;;;;27.02;2.42;;;;;;;-146.25;100.00;52619.63;2072369;28;28963;-73
2023/11/24 00:22:41;;;;;;;20.90;2.40;;;;;;;-146.25;100.00;52639.91;2079953;28;32054;-73
2023/11/24 00:23:43;;;;;;;21.50;2.00;;;;;;;-146.25;100.00;52631.78;2079422;28;37011;-72
2023/11/24 00:24:44;;;;;;;21.17;2.13;;;;;;;-146.25;100.00;52591.25;2072062;28;34821;-73
2023/11/24 00:25:47;;;;;;;23.30;1.83;;;;;;;-146.25;100.00;52643.97;2072250;28;38962;-73
2023/11/24 00:26:51;;;;;;;26.27;2.60;;;;;;;-146.25;100.00;52639.91;2073162;28;20173;-73
2023/11/24 00:27:55;;;;;;;30.55;3.17;;;;;;;-146.25;100.00;52581.09;2072065;28;34732;-71
2023/11/24 00:28:58;;;;;;;18.77;2.22;;;;;;;-146.25;100.00;52629.75;2072791;28;25002;-73
2023/11/24 00:30:00;;;;;;;23.27;2.70;;;;;;;-146.25;100.00;52652.06;2072283;28;23306;-71
2023/11/24 00:31:05;;;;;;;17.80;2.55;;;;;;;-146.25;100.00;52645.97;2072677;28;25722;-73
2023/11/24 00:32:07;;;;;;;26.92;2.47;;;;;;;-146.25;100.00;52591.25;2072738;28;20858;-72
2023/11/24 00:33:12;;;;;;;23.48;2.45;;;;;;;-146.25;100.00;52613.53;2073031;28;20042;-73
2023/11/24 00:34:14;;;;;;;24.85;2.72;;;;;;;-146.25;100.00;52637.88;2072268;28;25851;-73
2023/11/24 00:35:16;;;;;;;23.88;2.88;;;;;;;-146.25;100.00;52625.72;2073101;28;20070;-73
2023/11/24 00:36:18;;;;;;;26.67;2.58;;;;;;;-146.25;100.00;52637.88;2071342;28;33898;-74
2023/11/24 00:37:22;;;;;;;23.80;2.90;;;;;;;-146.25;100.00;52668.28;2064793;28;20169;-73
2023/11/24 00:38:24;;;;;;;24.60;2.53;;;;;;;-146.25;100.00;52595.28;2064042;28;20820;-73
2023/11/24 00:39:26;;;;;;;16.88;2.17;;;;;;;-146.25;100.00;52609.50;2063343;28;35744;-72
2023/11/24 00:40:27;;;;;;;24.65;2.95;;;;;;;-146.25;100.00;52615.56;2071981;28;20039;-73
2023/11/24 00:41:29;;;;;;;20.70;2.95;;;;;;;-146.25;100.00;52593.25;2080235;28;20070;-73
2023/11/24 00:42:32;;;;;;;20.08;2.20;;;;;;;-146.25;100.00;52601.38;2079851;28;28772;-74
2023/11/24 00:43:36;;;;;;;24.13;2.85;;;;;;;-146.25;100.00;52625.72;2072828;28;20109;-74
2023/11/24 00:44:38;;;;;;;22.67;2.40;;;;;;;-146.25;100.00;52621.66;2072431;28;20901;-73
2023/11/24 00:45:42;;;;;;;26.85;2.65;;;;;;;-146.25;100.00;52615.56;2072345;28;33209;-72
2023/11/24 00:46:44;;;;;;;27.38;3.10;;;;;;;-146.25;100.00;52611.50;2071879;28;26920;-73
2023/11/24 00:47:49;;;;;;;23.27;3.15;;;;;;;-146.25;100.00;52609.50;2079991;28;29768;-74
2023/11/24 00:48:52;;;;;;;26.63;2.38;;;;;;;-146.25;100.00;52609.50;2079505;28;27593;-73
2023/11/24 00:49:56;;;;;;;28.92;3.05;;;;;;;-146.25;100.00;52619.63;2080325;28;20049;-73
2023/11/24 00:50:59;;;;;;;21.48;2.30;;;;;;;-146.25;100.00;52629.75;2079347;28;20101;-73
2023/11/24 00:52:03;;;;;;;22.15;2.35;;;;;;;-146.25;100.00;52635.84;2072268;28;29770;-73
2023/11/24 00:53:07;;;;;;;20.27;2.25;;;;;;;-146.25;100.00;52601.38;2072676;28;20030;-71
2023/11/24 00:54:09;;;;;;;23.63;2.50;;;;;;;-146.25;100.00;52603.41;2063253;28;23880;-73
2023/11/24 00:55:11;;;;;;;23.80;2.67;;;;;;;-146.25;100.00;52648.00;2064270;28;20050;-73
2023/11/24 00:56:13;;;;;;;23.25;2.22;;;;;;;-146.25;100.00;52660.19;2072784;28;20073;-73
2023/11/24 00:57:15;;;;;;;22.27;2.38;;;;;;;-146.25;100.00;52605.44;2078978;28;26147;-73
2023/11/24 00:58:16;;;;;;;22.83;1.55;;;;;;;-146.25;100.00;52650.03;2080082;28;27446;-73
2023/11/24 00:59:18;;;;;;;25.35;2.30;;;;;;;-146.25;100.00;52617.59;2072705;28;20049;-73
2023/11/24 01:00:20;;;;;;;23.38;2.20;;;;;;;-146.25;100.00;52625.72;2079850;28;32256;-72
2023/11/24 01:01:23;;;;;;;21.95;2.50;;;;;;;-146.25;100.00;52643.97;2071630;28;32340;-72
2023/11/24 01:02:27;;;;;;;27.10;2.22;;;;;;;-146.25;100.00;52613.53;2072324;28;20038;-73
2023/11/24 01:03:31;;;;;;;20.13;2.40;;;;;;;-146.25;100.00;52617.59;2071822;28;31630;-73
2023/11/24 01:04:33;;;;;;;21.85;2.25;;;;;;;-146.25;100.00;52607.47;2072403;28;24464;-73
2023/11/24 01:05:35;;;;;;;21.63;2.15;;;;;;;-146.25;100.00;52631.78;2071773;28;20046;-74
2023/11/24 01:06:38;;;;;;;19.15;2.30;;;;;;;-146.25;100.00;52654.09;2071912;28;31893;-73
2023/11/24 01:07:40;;;;;;;20.35;2.20;;;;;;;-146.25;100.00;52639.91;2079288;28;30102;-71
2023/11/24 01:08:42;;;;;;;17.98;2.20;;;;;;;-146.25;100.00;52631.78;2072559;28;20034;-73
2023/11/24 01:09:44;;;;;;;20.23;2.13;;;;;;;-146.25;100.00;52643.97;2072223;28;20137;-73
2023/11/24 01:10:46;;;;;;;22.27;2.35;;;;;;;-146.25;100.00;52621.66;2063672;28;26686;-74
2023/11/24 01:11:48;;;;;;;25.42;1.83;;;;;;;-146.25;100.00;52629.75;2055917;28;30295;-73
2023/11/24 01:12:51;;;;;;;24.45;2.30;;;;;;;-146.25;100.00;52607.47;2071889;28;30112;-74
2023/11/24 01:13:53;;;;;;;20.05;2.20;;;;;;;-146.25;100.00;52631.78;2072252;28;24387;-74
2023/11/24 01:14:55;;;;;;;25.63;2.50;;;;;;;-146.25;100.00;52619.63;2080053;28;20037;-73
2023/11/24 01:15:58;;;;;;;22.67;2.28;;;;;;;-146.25;100.00;52605.44;2079790;28;21119;-73
2023/11/24 01:17:00;;;;;;;25.10;2.83;;;;;;;-146.25;100.00;52613.53;2072425;28;26283;-72
2023/11/24 01:18:06;;;;;;;22.88;2.45;;;;;;;-146.25;100.00;52623.69;2072374;28;20035;-73
2023/11/24 01:19:14;;;;;;;18.35;1.98;;;;;;;-146.25;100.00;52615.56;2072781;28;20094;-75
2023/11/24 01:20:16;;;;;;;20.38;2.10;;;;;;;-146.25;100.00;52611.50;2071557;28;31170;-74
2023/11/24 01:21:18;;;;;;;19.80;2.75;;;;;;;-146.25;100.00;52579.06;2071668;28;25170;-74
2023/11/24 01:22:20;;;;;;;21.80;1.90;;;;;;;-146.25;100.00;52573.00;2079118;28;35719;-71
2023/11/24 01:23:23;;;;;;;19.98;2.00;;;;;;;-146.25;100.00;52605.44;2080300;28;21010;-73
2023/11/24 01:24:27;;;;;;;18.00;2.17;;;;;;;-146.25;100.00;52621.66;2071155;28;36639;-73
2023/11/24 01:25:29;;;;;;;18.25;2.17;;;;;;;-146.25;100.00;52599.34;2071636;28;23451;-73
2023/11/24 01:26:31;;;;;;;25.75;2.30;;;;;;;-146.25;100.00;52625.72;2072135;28;27175;-74
2023/11/24 01:27:34;;;;;;;21.45;1.85;;;;;;;-146.25;100.00;52650.03;2079876;28;20736;-76
2023/11/24 01:28:35;;;;;;;21.23;1.40;;;;;;;-146.25;100.00;52627.75;2071650;28;20137;-74
2023/11/24 01:29:37;;;;;;;17.67;1.85;;;;;;;-146.25;100.00;52623.69;2071469;28;29208;-74
2023/11/24 01:30:40;;;;;;;21.33;2.00;;;;;;;-146.25;100.00;52652.06;2071801;28;29932;-73
2023/11/24 01:31:43;;;;;;;18.73;1.63;;;;;;;-146.25;100.00;52656.13;2063652;28;20042;-73
2023/11/24 01:32:44;;;;;;;15.70;1.70;;;;;;;-146.25;100.00;52623.69;2063134;28;32072;-73
2023/11/24 01:33:46;;;;;;;18.80;1.90;;;;;;;-146.25;100.00;52654.09;2071978;28;20045;-73
2023/11/24 01:34:48;;;;;;;14.30;1.05;;;;;;;-146.25;100.00;52615.56;2063310;28;20108;-74
2023/11/24 01:35:50;;;;;;;11.25;1.10;;;;;;;-146.25;100.00;52599.34;2063597;28;32365;-74
2023/11/24 01:36:52;;;;;;;16.08;1.67;;;;;;;-146.25;100.00;52595.28;2071865;28;28633;-73
2023/11/24 01:37:54;;;;;;;12.77;0.85;;;;;;;-146.25;100.00;52615.56;2079507;28;20899;-74
2023/11/24 01:38:56;;;;;;;14.85;0.93;;;;;;;-146.25;100.00;52625.72;2079255;28;26582;-73
2023/11/24 01:39:57;;;;;;;17.20;1.48;;;;;;;-146.25;100.00;52633.81;2072755;28;27581;-74
2023/11/24 01:41:00;;;;;;;10.30;1.10;;;;;;;-146.25;100.00;52652.06;2072031;28;20046;-72
2023/11/24 01:42:04;;;;;;;13.63;1.25;;;;;;;-146.25;100.00;52611.50;2072085;28;34622;-73
2023/11/24 01:43:06;;;;;;;13.80;1.05;;;;;;;-146.25;100.00;52623.69;2072183;28;20416;-72
2023/11/24 01:44:08;;;;;;;11.40;0.65;;;;;;;-146.25;100.00;52633.81;2072430;28;21280;-74
2023/11/24 01:45:10;;;;;;;14.00;1.02;;;;;;;-146.25;100.00;52656.13;2072203;28;30174;-74
2023/11/24 01:46:12;;;;;;;11.93;1.00;;;;;;;-146.25;100.00;52631.78;2079619;28;33184;-73
2023/11/24 01:47:15;;;;;;;12.15;0.90;;;;;;;-146.25;100.00;52579.06;2079064;28;26220;-76
2023/11/24 01:48:19;;;;;;;11.63;0.95;;;;;;;-146.25;100.00;52599.34;2071616;28;28078;-74
2023/11/24 01:49:24;;;;;;;11.75;1.17;;;;;;;-146.25;100.00;52639.91;2071478;28;20440;-72
2023/11/24 01:50:26;;;;;;;11.95;1.33;;;;;;;-146.25;100.00;52652.06;2072259;28;20091;-74
2023/11/24 01:51:28;;;;;;;11.32;0.90;;;;;;;-146.25;100.00;52627.75;2063397;28;32528;-74
2023/11/24 01:52:32;;;;;;;12.07;1.15;;;;;;;-146.25;100.00;52617.59;2071670;28;29512;-74
2023/11/24 01:53:36;;;;;;;8.90;0.88;;;;;;;-146.25;100.00;52639.91;2078999;28;30479;-73
2023/11/24 01:54:38;;;;;;;16.48;1.38;;;;;;;-146.25;100.00;52658.16;2071897;28;20884;-74
2023/11/24 01:55:40;;;;;;;15.38;1.25;;;;;;;-146.25;100.00;52641.94;2071125;28;24395;-72
2023/11/24 01:56:42;;;;;;;11.38;0.73;;;;;;;-146.25;100.00;52631.78;2063329;28;21063;-73
2023/11/24 01:57:47;;;;;;;13.70;1.00;;;;;;;-146.25;100.00;52656.13;2063605;28;20966;-72
2023/11/24 01:58:52;;;;;;;11.32;1.13;;;;;;;-146.25;100.00;52666.25;2063376;28;20093;-74
2023/11/24 01:59:54;;;;;;;9.38;0.85;;;;;;;-146.25;100.00;52650.03;2064485;28;21565;-73
2023/11/24 02:00:55;;;;;;;8.65;1.05;;;;;;;-146.25;100.00;52635.84;2079191;28;26286;-74
2023/11/24 02:01:59;;;;;;;14.18;0.90;;;;;;;-146.25;100.00;52589.22;2079519;28;20069;-74
2023/11/24 02:03:01;;;;;;;12.05;1.05;;;;;;;-146.25;100.00;52643.97;2078921;28;21120;-74
2023/11/24 02:04:05;;;;;;;20.83;1.42;;;;;;;-146.25;100.00;52615.56;2079176;28;29130;-73
2023/11/24 02:05:09;;;;;;;10.48;0.70;;;;;;;-146.25;100.00;52607.47;2071945;28;20034;-74
2023/11/24 02:06:11;;;;;;;17.80;1.73;;;;;;;-146.25;100.00;52654.09;2071155;28;33162;-73
2023/11/24 02:07:13;;;;;;;12.55;1.08;;;;;;;-146.25;100.00;52631.78;2071866;28;34596;-74
2023/11/24 02:08:15;;;;;;;14.45;0.85;;;;;;;-146.25;100.00;52603.41;2080036;28;20049;-73
2023/11/24 02:09:17;;;;;;;10.82;0.98;;;;;;;-146.25;100.00;52615.56;2079597;28;25963;-74
2023/11/24 02:10:20;;;;;;;19.30;1.73;;;;;;;-146.25;100.00;52607.47;2063342;28;20169;-72
2023/11/24 02:11:22;;;;;;;12.70;1.02;;;;;;;-146.25;100.00;52613.53;2064136;28;20050;-76
2023/11/24 02:12:24;;;;;;;18.48;1.58;;;;;;;-146.25;100.00;52633.81;2079454;28;22164;-74
2023/11/24 02:13:27;;;;;;;13.45;1.10;;;;;;;-146.25;100.00;52623.69;2072649;28;21130;-76
2023/11/24 02:14:28;;;;;;;18.05;1.30;;;;;;;-146.25;100.00;52607.47;2079656;28;21134;-74
2023/11/24 02:15:30;;;;;;;12.88;1.10;;;;;;;-146.25;100.00;52635.84;2079588;28;28118;-75
2023/11/24 02:16:33;;;;;;;13.00;1.17;;;;;;;-146.25;100.00;52654.09;2079051;28;20056;-74
2023/11/24 02:17:36;;;;;;;17.33;1.23;;;;;;;-146.25;100.00;52619.63;2079413;28;20911;-75
2023/11/24 02:18:38;;;;;;;9.45;1.10;;;;;;;-146.25;100.00;52603.41;2071183;28;20185;-75
2023/11/24 02:19:40;;;;;;;16.25;1.05;;;;;;;-146.25;100.00;52615.56;2071521;28;21187;-74
2023/11/24 02:20:42;;;;;;;13.50;1.33;;;;;;;-146.25;100.00;52672.34;2079119;28;28166;-74
2023/11/24 02:21:45;;;;;;;15.30;1.13;;;;;;;-146.25;100.00;52611.50;2079630;28;21001;-75
2023/11/24 02:22:47;;;;;;;11.40;0.98;;;;;;;-146.25;100.00;52633.81;2071215;28;21071;-74
2023/11/24 02:23:50;;;;;;;11.45;0.98;;;;;;;-146.25;100.00;52611.50;2071339;28;24424;-76
2023/11/24 02:24:52;;;;;;;12.30;1.10;;;;;;;-146.25;100.00;52607.47;2070869;28;28446;-74
2023/11/24 02:25:54;;;;;;;12.90;0.98;;;;;;;-146.25;100.00;52607.47;2063588;28;22966;-74
2023/11/24 02:26:59;;;;;;;12.80;1.17;;;;;;;-146.25;100.00;52635.84;2071476;28;20034;-73
2023/11/24 02:28:03;;;;;;;15.13;1.45;;;;;;;-146.25;100.00;52611.50;2071168;28;27769;-72
2023/11/24 02:29:05;;;;;;;12.13;0.98;;;;;;;-146.25;100.00;52623.69;2071232;28;30258;-72
2023/11/24 02:30:08;;;;;;;9.02;1.00;;;;;;;-146.25;100.00;52664.22;2071588;28;25725;-75
2023/11/24 02:31:11;;;;;;;8.93;0.60;;;;;;;-146.25;100.00;52609.50;2071077;28;20232;-72
2023/11/24 02:32:14;;;;;;;8.35;0.70;;;;;;;-146.25;100.00;52656.13;2071354;28;20085;-73
2023/11/24 02:33:16;;;;;;;8.60;0.40;;;;;;;-146.25;100.00;52617.59;2071160;28;20077;-74
2023/11/24 02:34:18;;;;;;;10.48;0.50;;;;;;;-146.25;100.00;52635.84;2079495;28;20092;-73
2023/11/24 02:35:21;;;;;;;8.68;0.70;;;;;;;-146.25;100.00;52660.19;2079076;28;20132;-72
2023/11/24 02:36:27;;;;;;;7.60;0.90;;;;;;;-146.25;100.00;52621.66;2071305;28;21012;-72
2023/11/24 02:37:29;;;;;;;7.47;0.40;;;;;;;-146.25;100.00;52658.16;2071630;28;20049;-71
2023/11/24 02:38:32;;;;;;;8.02;0.40;;;;;;;-146.25;100.00;52627.75;2072041;28;20867;-73
2023/11/24 02:39:35;;;;;;;10.02;0.55;;;;;;;-146.25;100.00;52662.22;2079031;28;20049;-72
2023/11/24 02:40:38;;;;;;;13.10;1.00;;;;;;;-146.25;100.00;52676.41;2079702;28;20693;-73
2023/11/24 02:41:40;;;;;;;8.25;0.52;;;;;;;-146.25;100.00;52615.56;2070680;28;25088;-71
2023/11/24 02:42:44;;;;;;;11.27;0.77;;;;;;;-146.25;100.00;52617.59;2071350;28;25996;-72
2023/11/24 02:43:46;;;;;;;6.50;0.50;;;;;;;-146.25;100.00;52635.84;2071798;28;23116;-73
2023/11/24 02:44:51;;;;;;;6.97;0.60;;;;;;;-146.25;100.00;52607.47;2071092;28;26558;-72
2023/11/24 02:45:53;;;;;;;7.75;0.50;;;;;;;-146.25;100.00;52629.75;2070901;28;28697;-73
2023/11/24 02:46:55;;;;;;;6.28;0.80;;;;;;;-146.25;100.00;52603.41;2079411;28;20078;-73
2023/11/24 02:48:00;;;;;;;10.55;0.45;;;;;;;-146.25;100.00;52603.41;2079234;28;20081;-72
2023/11/24 02:49:02;;;;;;;6.10;0.40;;;;;;;-146.25;100.00;52613.53;2078703;28;31965;-73
2023/11/24 02:50:05;;;;;;;5.20;0.47;;;;;;;-146.25;100.00;52615.56;2071632;28;20043;-72
2023/11/24 02:51:07;;;;;;;8.35;0.40;;;;;;;-146.25;100.00;52611.50;2071091;28;28570;-75
2023/11/24 02:52:09;;;;;;;12.18;0.40;;;;;;;-146.25;100.00;52601.38;2062821;28;34330;-73
2023/11/24 02:53:11;;;;;;;7.60;0.63;;;;;;;-146.25;100.00;52625.72;2071820;28;21092;-74
2023/11/24 02:54:15;;;;;;;8.85;0.82;;;;;;;-146.25;100.00;52641.94;2078925;28;23656;-72
2023/11/24 02:55:18;;;;;;;6.63;0.43;;;;;;;-146.25;100.00;52652.06;2071628;28;20527;-72
2023/11/24 02:56:20;;;;;;;10.60;0.73;;;;;;;-146.25;100.00;52587.19;2071453;28;33438;-73
2023/11/24 02:57:22;;;;;;;10.20;0.50;;;;;;;-146.25;100.00;52643.97;2079086;28;30774;-74
2023/11/24 02:58:27;;;;;;;9.55;0.40;;;;;;;-146.25;100.00;52629.75;2071828;28;25370;-74
2023/11/24 02:59:29;;;;;;;9.88;0.43;;;;;;;-146.25;100.00;52609.50;2079632;28;30035;-72
2023/11/24 03:00:33;;;;;;;9.85;0.40;;;;;;;-146.25;100.00;52615.56;2070138;28;20178;-72
2023/11/24 03:01:35;;;;;;;10.85;0.82;;;;;;;-146.25;100.00;52601.38;2071113;28;28522;-73
2023/11/24 03:02:37;;;;;;;6.80;0.55;;;;;;;-146.25;100.00;52615.56;2071582;28;26579;-74
2023/11/24 03:03:39;;;;;;;8.27;0.40;;;;;;;-146.25;100.00;52629.75;2071486;28;30167;-75
2023/11/24 03:04:41;;;;;;;6.45;0.30;;;;;;;-146.25;100.00;52623.69;2071421;28;31803;-73
2023/11/24 03:05:43;;;;;;;7.57;0.50;;;;;;;-146.25;100.00;52643.97;2072197;28;20038;-73
2023/11/24 03:06:45;;;;;;;11.68;0.60;;;;;;;-146.25;100.00;52595.28;2071323;28;20042;-74
2023/11/24 03:07:47;;;;;;;7.38;0.57;;;;;;;-146.25;100.00;52627.75;2071590;28;30165;-72
2023/11/24 03:08:49;;;;;;;7.07;0.40;;;;;;;-146.25;100.00;52615.56;2078491;28;20127;-72
2023/11/24 03:09:50;;;;;;;6.18;0.30;;;;;;;-146.25;100.00;52607.47;2070838;28;29247;-72
2023/11/24 03:10:53;;;;;;;7.57;0.40;;;;;;;-146.25;100.00;52589.22;2070743;28;25614;-73
2023/11/24 03:11:55;;;;;;;6.22;0.38;;;;;;;-146.25;100.00;52619.63;2078992;28;34752;-74
2023/11/24 03:12:57;;;;;;;9.07;0.52;;;;;;;-146.25;100.00;52621.66;2070714;28;27854;-72
2023/11/24 03:13:59;;;;;;;8.10;0.70;;;;;;;-146.25;100.00;52629.75;2070733;28;31700;-73
2023/11/24 03:15:01;;;;;;;7.70;0.50;;;;;;;-146.25;100.00;52591.25;2080193;28;28684;-70
2023/11/24 03:16:06;;;;;;;7.72;0.40;;;;;;;-146.25;100.00;52631.78;2072753;28;20058;-74
2023/11/24 03:17:11;;;;;;;5.25;0.40;;;;;;;-146.25;100.00;52633.81;2064308;28;24348;-72
2023/11/24 03:18:13;;;;;;;4.30;0.45;;;;;;;-146.25;100.00;52603.41;2056745;28;23709;-72
2023/11/24 03:19:16;;;;;;;8.68;0.43;;;;;;;-146.25;100.00;52615.56;2065145;28;20035;-71
2023/11/24 03:20:21;;;;;;;7.45;0.88;;;;;;;-146.25;100.00;52635.84;2073158;28;26752;-72
2023/11/24 03:21:23;;;;;;;9.15;0.40;;;;;;;-146.25;100.00;52635.84;2063928;28;31059;-72
2023/11/24 03:22:25;;;;;;;5.43;0.43;;;;;;;-146.25;100.00;52619.63;2064864;28;32279;-73
2023/11/24 03:23:26;;;;;;;7.13;0.60;;;;;;;-146.25;100.00;52613.53;2072770;28;25743;-73
2023/11/24 03:24:28;;;;;;;10.10;0.85;;;;;;;-146.25;100.00;52635.84;2080689;28;20125;-72
2023/11/24 03:25:34;;;;;;;8.50;0.60;;;;;;;-146.25;100.00;52617.59;2080232;28;27385;-72
2023/11/24 03:26:36;;;;;;;5.50;0.50;;;;;;;-146.25;100.00;52645.97;2072640;28;24477;-73
2023/11/24 03:27:38;;;;;;;6.05;0.40;;;;;;;-146.25;100.00;52613.53;2072051;28;32922;-73
2023/11/24 03:28:40;;;;;;;9.73;0.82;;;;;;;-146.25;100.00;52645.97;2080308;28;35950;-73
2023/11/24 03:29:41;;;;;;;8.02;0.50;;;;;;;-146.25;100.00;52583.13;2080444;28;26676;-73
2023/11/24 03:30:43;;;;;;;10.30;0.70;;;;;;;-146.25;100.00;52599.34;2072856;28;32376;-73
2023/11/24 03:31:45;;;;;;;7.25;0.47;;;;;;;-146.25;100.00;52639.91;2072342;28;28127;-73
2023/11/24 03:32:47;;;;;;;6.35;0.50;;;;;;;-146.25;100.00;52603.41;2071830;28;29621;-73
2023/11/24 03:33:49;;;;;;;7.00;0.30;;;;;;;-146.25;100.00;52629.75;2071787;28;24487;-72
2023/11/24 03:34:51;;;;;;;9.18;1.02;;;;;;;-146.25;100.00;52627.75;2072820;28;29411;-73
2023/11/24 03:35:53;;;;;;;9.25;0.57;;;;;;;-146.25;100.00;52615.56;2073058;28;20046;-72
2023/11/24 03:36:56;;;;;;;8.75;0.50;;;;;;;-146.25;100.00;52607.47;2073849;28;20038;-73
2023/11/24 03:37:58;;;;;;;9.60;0.65;;;;;;;-146.25;100.00;52599.34;2072639;28;24061;-72
2023/11/24 03:39:00;;;;;;;5.00;0.50;;;;;;;-146.25;100.00;52601.38;2073169;28;20044;-73
2023/11/24 03:40:02;;;;;;;10.60;0.73;;;;;;;-146.25;100.00;52617.59;2072877;28;21672;-71
2023/11/24 03:41:05;;;;;;;9.85;0.55;;;;;;;-146.25;100.00;52609.50;2073162;28;20912;-73
2023/11/24 03:42:06;;;;;;;9.73;0.50;;;;;;;-146.25;100.00;52607.47;2073213;28;20177;-71
2023/11/24 03:43:08;;;;;;;8.27;0.38;;;;;;;-146.25;100.00;52637.88;2073284;28;23542;-72
2023/11/24 03:44:10;;;;;;;7.63;0.55;;;;;;;-146.25;100.00;52613.53;2079801;28;24522;-72
2023/11/24 03:45:12;;;;;;;11.23;0.60;;;;;;;-146.25;100.00;52605.44;2080649;28;23046;-72
2023/11/24 03:46:14;;;;;;;12.15;0.82;;;;;;;-146.25;100.00;52609.50;2072285;28;31828;-72
2023/11/24 03:47:18;;;;;;;9.48;0.50;;;;;;;-146.25;100.00;52595.28;2072464;28;26343;-72
2023/11/24 03:48:21;;;;;;;8.82;0.50;;;;;;;-146.25;100.00;52639.91;2072060;28;28559;-72
2023/11/24 03:49:22;;;;;;;8.00;0.60;;;;;;;-146.25;100.00;52619.63;2072448;28;31328;-72
2023/11/24 03:50:24;;;;;;;6.53;0.38;;;;;;;-146.25;100.00;52652.06;2072678;28;23304;-72
2023/11/24 03:51:26;;;;;;;12.30;0.70;;;;;;;-146.25;100.00;52641.94;2080099;28;26033;-73
2023/11/24 03:52:28;;;;;;;9.25;0.65;;;;;;;-146.25;100.00;52611.50;2079932;28;28956;-72
2023/11/24 03:53:30;;;;;;;6.13;0.40;;;;;;;-146.25;100.00;52613.53;2079766;28;23470;-72
2023/11/24 03:54:31;;;;;;;5.20;0.50;;;;;;;-146.25;100.00;52607.47;2080787;28;20038;-72
2023/11/24 03:55:35;;;;;;;9.65;0.63;;;;;;;-146.25;100.00;52579.06;2072705;28;30856;-72
2023/11/24 03:56:38;;;;;;;8.68;0.40;;;;;;;-146.25;100.00;52676.41;2080398;28;20050;-72
2023/11/24 03:57:40;;;;;;;8.63;0.60;;;;;;;-146.25;100.00;52603.41;2080366;28;28259;-73
2023/11/24 03:58:42;;;;;;;9.57;0.50;;;;;;;-146.25;100.00;52633.81;2073549;28;20042;-72
2023/11/24 03:59:44;;;;;;;8.10;0.40;;;;;;;-146.25;100.00;52597.31;2080304;28;20050;-72
2023/11/24 04:00:46;;;;;;;7.95;0.52;;;;;;;-146.25;100.00;52631.78;2080086;28;29483;-73
2023/11/24 04:01:48;;;;;;;8.82;0.60;;;;;;;-146.25;100.00;52607.47;2072323;28;23968;-73
2023/11/24 04:02:50;;;;;;;10.23;0.50;;;;;;;-146.25;100.00;52621.66;2072193;28;20042;-71
2023/11/24 04:03:54;;;;;;;7.10;0.60;;;;;;;-146.25;100.00;52619.63;2072897;28;31524;-73
2023/11/24 04:04:56;;;;;;;7.97;0.50;;;;;;;-146.25;100.00;52621.66;2072748;28;26348;-72
2023/11/24 04:05:58;;;;;;;6.72;0.65;;;;;;;-146.25;100.00;52617.59;2080683;28;20054;-73
2023/11/24 04:06:59;;;;;;;9.25;0.57;;;;;;;-146.25;100.00;52597.31;2080162;28;28854;-71
2023/11/24 04:08:04;;;;;;;14.05;0.70;;;;;;;-146.25;100.00;52623.69;2062124;28;30226;-66
2023/11/24 04:09:06;;;;;;;7.47;0.50;;;;;;;-146.25;100.00;52583.13;2056735;28;20035;-72
2023/11/24 04:10:11;;;;;;;13.75;0.65;;;;;;;-146.25;100.00;52589.22;2063371;28;31138;-72
2023/11/24 04:11:13;;;;;;;8.77;0.50;;;;;;;-146.25;100.00;52589.22;2063852;28;26293;-72
2023/11/24 04:12:15;;;;;;;15.85;1.02;;;;;;;-146.25;100.00;52591.25;2064849;28;21037;-70
2023/11/24 04:13:17;;;;;;;8.25;0.45;;;;;;;-146.25;100.00;52672.34;2063631;28;28388;-72
2023/11/24 04:14:18;;;;;;;9.13;0.60;;;;;;;-146.25;100.00;52627.75;2063694;28;34854;-71
2023/11/24 04:15:20;;;;;;;8.73;0.30;;;;;;;-146.25;100.00;52666.25;2064503;28;21275;-71
2023/11/24 04:16:23;;;;;;;7.13;0.50;;;;;;;-146.25;100.00;52611.50;2064486;28;33916;-71
2023/11/24 04:17:25;;;;;;;8.48;0.40;;;;;;;-146.25;100.00;52601.38;2063729;28;22636;-73
2023/11/24 04:18:30;;;;;;;6.18;0.75;;;;;;;-146.25;100.00;52615.56;2064482;28;20039;-74
2023/11/24 04:19:32;;;;;;;7.50;0.57;;;;;;;-146.25;100.00;52627.75;2064719;28;20039;-72
2023/11/24 04:20:33;;;;;;;5.68;0.43;;;;;;;-146.25;100.00;52615.56;2065014;28;20178;-73
2023/11/24 04:21:36;;;;;;;5.47;0.55;;;;;;;-146.25;100.00;52623.69;2064821;28;20046;-72
2023/11/24 04:22:38;;;;;;;7.43;0.77;;;;;;;-146.25;100.00;52615.56;2064389;28;31237;-73
2023/11/24 04:23:40;;;;;;;8.30;0.38;;;;;;;-146.25;100.00;52611.50;2063903;28;28028;-72
2023/11/24 04:24:41;;;;;;;6.57;0.40;;;;;;;-146.25;100.00;52627.75;2068990;28;20041;-71
2023/11/24 04:25:46;;;;;;;5.28;0.40;;;;;;;-146.25;100.00;52623.69;2071366;28;24376;-73
2023/11/24 04:26:48;;;;;;;6.47;0.63;;;;;;;-146.25;100.00;52613.53;2063928;28;20109;-73
2023/11/24 04:27:52;;;;;;;6.40;0.40;;;;;;;-146.25;100.00;52645.97;2064132;28;31304;-72
2023/11/24 04:28:57;;;;;;;8.93;0.30;;;;;;;-146.25;100.00;52603.41;2079937;28;26333;-73
2023/11/24 04:29:58;;;;;;;4.80;0.22;;;;;;;-146.25;100.00;52615.56;2079533;28;20050;-73
2023/11/24 04:31:00;;;;;;;5.20;0.38;;;;;;;-146.25;100.00;52656.13;2071379;28;36094;-72
2023/11/24 04:32:05;;;;;;;7.93;0.35;;;;;;;-146.25;100.00;52599.34;2064234;28;29830;-72
2023/11/24 04:33:06;;;;;;;5.00;0.30;;;;;;;-146.25;100.00;52595.28;2064778;28;20215;-73
2023/11/24 04:34:11;;;;;;;7.70;0.30;;;;;;;-146.25;100.00;52617.59;2064046;28;33431;-73
2023/11/24 04:35:13;;;;;;;9.23;0.47;;;;;;;-146.25;100.00;52593.25;2064087;28;31989;-73
2023/11/24 04:36:17;;;;;;;8.85;0.40;;;;;;;-146.25;100.00;52587.19;2079718;28;20081;-73
2023/11/24 04:37:19;;;;;;;6.15;0.22;;;;;;;-146.25;100.00;52603.41;2078666;28;31763;-73
2023/11/24 04:38:23;;;;;;;7.00;0.28;;;;;;;-146.25;100.00;52613.53;2063737;28;32390;-71
2023/11/24 04:39:26;;;;;;;8.45;0.30;;;;;;;-146.25;100.00;52631.78;2064426;28;20892;-72
2023/11/24 04:40:28;;;;;;;4.70;0.30;;;;;;;-146.25;100.00;52601.38;2063900;28;35077;-72
2023/11/24 04:41:34;;;;;;;3.70;0.15;;;;;;;-146.25;100.00;52611.50;2063858;28;33366;-72
2023/11/24 04:42:36;;;;;;;4.63;0.30;;;;;;;-146.25;100.00;52609.50;2063887;28;33034;-73